sensor_id;sensor_type;location;lat;lon;timestamp;pressure;altitude;pressure_sealevel;temperature;humidity
55679;BME280;41573;51.446;-2.018;2023-01-31T12:39:00;98910.97;;;10.52;100.00
55679;BME280;41573;51.446;-2.018;2023-01-31T12:41:30;99008.22;;;10.57;100.00
55679;BME280;41573;51.446;-2.018;2023-01-31T12:55:18;99449.88;;;10.37;100.00
55679;BME280;41573;51.446;-2.018;2023-01-31T13:00:25;99527.69;;;10.16;100.00
55679;BME280;41573;51.446;-2.018;2023-01-31T13:06:00;99592.31;;;10.30;100.00
55679;BME280;41573;51.446;-2.018;2023-01-31T13:08:31;99601.72;;;10.23;100.00
55679;BME280;41573;51.446;-2.018;2023-01-31T13:13:39;99627.22;;;10.38;100.00
55679;BME280;41573;51.446;-2.018;2023-01-31T13:19:12;99701.53;;;10.28;100.00
55679;BME280;41573;51.446;-2.018;2023-01-31T13:21:43;99746.47;;;10.20;100.00
55679;BME280;41573;51.446;-2.018;2023-01-31T13:24:12;99760.75;;;10.06;100.00
55679;BME280;41573;51.446;-2.018;2023-01-31T13:26:53;99739.19;;;9.98;100.00
55679;BME280;41573;51.446;-2.018;2023-01-31T13:32:40;99720.72;;;9.83;100.00
55679;BME280;41573;51.446;-2.018;2023-01-31T13:35:25;99719.63;;;9.86;100.00
55679;BME280;41573;51.446;-2.018;2023-01-31T13:37:57;99717.72;;;9.88;100.00
55679;BME280;41573;51.446;-2.018;2023-01-31T13:40:26;99719.75;;;9.84;100.00
55679;BME280;41573;51.446;-2.018;2023-01-31T13:42:55;99703.97;;;9.94;100.00
55679;BME280;41573;51.446;-2.018;2023-01-31T13:45:27;99695.34;;;10.04;100.00
55679;BME280;41573;51.446;-2.018;2023-01-31T13:53:35;99732.94;;;10.23;100.00
55679;BME280;41573;51.446;-2.018;2023-01-31T13:56:09;99767.97;;;10.30;100.00
55679;BME280;41573;51.446;-2.018;2023-01-31T13:58:38;99756.06;;;10.35;100.00
55679;BME280;41573;51.446;-2.018;2023-01-31T14:01:14;99778.72;;;10.41;100.00
55679;BME280;41573;51.446;-2.018;2023-01-31T14:09:36;99761.34;;;10.73;100.00
55679;BME280;41573;51.446;-2.018;2023-01-31T14:17:04;99780.63;;;10.76;100.00
55679;BME280;41573;51.446;-2.018;2023-01-31T14:35:22;99792.28;;;10.12;100.00
55679;BME280;41573;51.446;-2.018;2023-01-31T14:46:32;99770.31;;;10.22;100.00
55679;BME280;41573;51.446;-2.018;2023-01-31T14:51:57;99801.28;;;10.23;100.00
55679;BME280;41573;51.446;-2.018;2023-01-31T15:00:03;99802.69;;;10.65;100.00
55679;BME280;41573;51.446;-2.018;2023-01-31T15:05:01;99825.72;;;11.50;100.00
55679;BME280;41573;51.446;-2.018;2023-01-31T15:07:28;99876.06;;;11.66;100.00
55679;BME280;41573;51.446;-2.018;2023-01-31T15:09:57;99896.34;;;11.80;100.00
55679;BME280;41573;51.446;-2.018;2023-01-31T15:12:53;99905.88;;;11.96;100.00
55679;BME280;41573;51.446;-2.018;2023-01-31T15:15:34;99959.47;;;11.93;100.00
55679;BME280;41573;51.446;-2.018;2023-01-31T15:18:21;99968.25;;;12.06;100.00
55679;BME280;41573;51.446;-2.018;2023-01-31T15:20:56;99973.94;;;12.01;100.00
55679;BME280;41573;51.446;-2.018;2023-01-31T15:23:27;99995.84;;;11.94;100.00
55679;BME280;41573;51.446;-2.018;2023-01-31T15:25:55;99998.06;;;11.76;100.00
55679;BME280;41573;51.446;-2.018;2023-01-31T15:28:29;100018.81;;;11.35;100.00
55679;BME280;41573;51.446;-2.018;2023-01-31T15:31:03;100020.69;;;10.96;100.00
55679;BME280;41573;51.446;-2.018;2023-01-31T15:33:40;99993.03;;;10.73;100.00
55679;BME280;41573;51.446;-2.018;2023-01-31T15:36:31;99968.53;;;10.42;100.00
55679;BME280;41573;51.446;-2.018;2023-01-31T15:39:05;99952.97;;;10.23;100.00
55679;BME280;41573;51.446;-2.018;2023-01-31T15:41:39;99924.25;;;10.15;100.00
55679;BME280;41573;51.446;-2.018;2023-01-31T15:44:22;99943.03;;;9.99;100.00
55679;BME280;41573;51.446;-2.018;2023-01-31T15:46:53;99942.09;;;10.00;100.00
55679;BME280;41573;51.446;-2.018;2023-01-31T15:49:33;99940.81;;;9.93;100.00
55679;BME280;41573;51.446;-2.018;2023-01-31T15:52:36;99932.50;;;9.84;100.00
55679;BME280;41573;51.446;-2.018;2023-01-31T15:55:02;99920.53;;;9.64;100.00
55679;BME280;41573;51.446;-2.018;2023-01-31T15:57:37;99920.31;;;9.55;100.00
55679;BME280;41573;51.446;-2.018;2023-01-31T16:00:04;99913.91;;;9.44;100.00
55679;BME280;41573;51.446;-2.018;2023-01-31T16:02:31;99909.38;;;9.32;100.00
55679;BME280;41573;51.446;-2.018;2023-01-31T16:05:06;99910.22;;;9.20;100.00
55679;BME280;41573;51.446;-2.018;2023-01-31T16:07:32;99890.59;;;9.08;100.00
55679;BME280;41573;51.446;-2.018;2023-01-31T16:09:59;99886.94;;;8.96;100.00
55679;BME280;41573;51.446;-2.018;2023-01-31T16:12:26;99882.88;;;8.90;100.00
55679;BME280;41573;51.446;-2.018;2023-01-31T16:14:53;99872.72;;;8.97;100.00
55679;BME280;41573;51.446;-2.018;2023-01-31T16:17:25;99869.69;;;8.89;100.00
55679;BME280;41573;51.446;-2.018;2023-01-31T16:19:51;99866.22;;;8.74;100.00
55679;BME280;41573;51.446;-2.018;2023-01-31T16:22:23;99860.94;;;8.59;100.00
55679;BME280;41573;51.446;-2.018;2023-01-31T16:24:58;99850.34;;;8.45;100.00
55679;BME280;41573;51.446;-2.018;2023-01-31T16:27:26;99841.69;;;8.27;100.00
55679;BME280;41573;51.446;-2.018;2023-01-31T16:29:55;99837.34;;;8.11;100.00
55679;BME280;41573;51.446;-2.018;2023-01-31T16:32:24;99832.81;;;7.99;100.00
55679;BME280;41573;51.446;-2.018;2023-01-31T16:35:23;99846.06;;;7.85;100.00
55679;BME280;41573;51.446;-2.018;2023-01-31T16:41:41;99837.91;;;7.59;100.00
55679;BME280;41573;51.446;-2.018;2023-01-31T16:44:14;99845.25;;;7.54;100.00
55679;BME280;41573;51.446;-2.018;2023-01-31T16:46:44;99845.13;;;7.41;100.00
55679;BME280;41573;51.446;-2.018;2023-01-31T16:51:47;99857.88;;;7.34;100.00
55679;BME280;41573;51.446;-2.018;2023-01-31T16:54:30;99863.53;;;7.28;100.00
55679;BME280;41573;51.446;-2.018;2023-01-31T17:00:04;99872.44;;;7.11;100.00
55679;BME280;41573;51.446;-2.018;2023-01-31T17:02:32;99862.88;;;7.08;100.00
55679;BME280;41573;51.446;-2.018;2023-01-31T17:05:26;99856.91;;;7.05;100.00
55679;BME280;41573;51.446;-2.018;2023-01-31T17:08:15;99852.66;;;7.02;100.00
55679;BME280;41573;51.446;-2.018;2023-01-31T17:10:47;99853.06;;;6.95;100.00
